Terminal Aerodrome Forecast
Issued by NWS Newport/Morehead City, NC

Home | Current Version | Previous Version | Text Only | Print | Product List | Glossary On
Versions: 1 2 3 4 5 6 7 8 9 10 11 12 13 14 15 16 17 18 19
000
FTUS42 KMHX 031741
TAFEWN
TAF
KEWN 031741Z 0318/0418 05005KT P6SM VCSH SCT025 OVC045
     FM032000 02006KT P6SM -RA OVC020
     FM040000 15010KT 4SM -RA BR OVC007 WS020/22035KT
     FM040400 22010KT 3SM BR OVC004
     FM041400 23010G15KT P6SM OVC010=

USA.gov is the U.S. government's official web portal to all federal, state and local government web resources and services.